Timeline UpdatesTrip UpdatesNews PostsPvt PostsTravel TipsAdmin PostsConv PostsFollowed PostsChat RequestsBlog PostsPNR Posts

Disclaimer
Search
 
 
Wed Sep 3, 2014 07:40:23 ISTHomeTrainsΣChainsAtlasPNRForumGalleryNewsFAQTripsMembersLoginFeedback
No Recent News for this Train
Other Trains in the News **new
Latest...
.
Wed Oct 10, 2012 (01:42PM)
⇐ Return Journey: Train# 59356

59355/Ratlam Mathura Passenger (UnReserved)

OLD Time-Table. Click here to UPDATE TT
Sep 11 2013 (10:51PM)
Change Departure Station:
Change Arrival Station:
Post a Train Travel TipPost a Train Travel Tip **new
Post a Comment/Question/Picture/VideoPost a Comment/Question/Picture/Video
Pantry/Catering
✕ NO Pantry Car
✕ NO Catering
RSA - Rake Sharing
Rake/Coach Composition
Loco
WAM 4 (BRC)
News    PNR    Forum    Time-Table    Availability    Fare Chart    Map    Arr/Dep History    Trips    Gallery    ΣChains    X/O    Timeline    
Travel Time: 12h 59m    54 halts    Distance: 506 km    Avg Speed: 38 km/hr
Type: Passenger
Zone: WR/Western
Departs @ 07:00
Platform# 6
SMTWTFS
Ratlam Junction/RTM 
Arrives @ 19:59
Platform# ???
SMTWTFS
Dumariya/DY 

54 halts. 65 intermediate Stations between Ratlam Junction and Dumariya

Show ALL intermediate Stations  

#CodeStation NameX/OArrivesAvgDepartsAvgHaltPFDay#KmSpeedElevZoneAddress
1RTM»Ratlam Junction (7)»  -07:00-610.049495mWRRatlam, Madhya Pradesh
2BODBangrod  07:12-07:13-1m--19.855484mWRRatlam, Madhya Pradesh
3RNHRunkheraXO  07:21-07:22-1m--117.157478mWRUjjain, Madhya Pradesh
4KUHKhachrod (2)X  07:33-07:35-2m--127.616497mWRUjjain, Madhya Pradesh
5BRNABerawanyaO  07:56-07:58-2m--133.312496mWRUjjain, Madhya Pradesh
6NADNagda Junction (4)X  08:40-08:45-5m--141.470468mWRNagda, Madhya Pradesh
7RLKRohal Khurd  08:54-08:55-1m--151.944499mWCRNagda, Madhya Pradesh
8MEPMahidpur Road  09:04-09:05-1m--158.571493mWCRGogapur, Madhya Pradesh
9LNRLuni RichhaO  09:14-09:15-1m--169.188471mWCRAlote, Madhya Pradesh
10VMAVikramgarh Alot (2)X  09:24-09:25-1m2182.451443mWCRKota Division, Madhya Pradesh
11THURThuriaX  09:34-09:35-1m--190.060430mWCRMDR 45, Madhya Pradesh
12TLZTalavli (2)  09:44-09:45-1m--199.035442mWCRMDR 45, Madhya Pradesh
13CMUChau Mahla (3)X  09:54-09:55-1m21104.265426mWCRJhalawar, Rajasthan
14NKHNathukheri  10:04-10:05-1m--1113.938439mWCRMDR 45, Madhya Pradesh
15SVASuwasra (2)  10:14-10:15-1m--1119.668450mWCRSuwasra, Madhya Pradesh
16HNUHanspuraXO  10:21-10:22-1m--1126.333476mWCRMandsaur, Madhya Pradesh
17SGZShamgarh (3)O  10:34-10:35-1m--1133.059463mWCRMandsaur, Madhya Pradesh
18GOHGaroth (2)O  10:46-10:47-1m21143.865441mWCRMadhya Pradesh 458880, Madhya Pradesh
19KRLSKurlasO  10:56-10:57-1m--1153.635417mWCRGarot, Madhya Pradesh
20BWMBhawani Mandi (3)  11:19-11:20-1m--1166.567384mWCRBhawani Mandi, Madhya Pradesh
21DKRADhuankheriX  11:29-11:30-1m--1176.642358mWCRBhawani Mandi, Madhya Pradesh
22JHWJhalawar Road (3)  11:39-11:40-1m--1183.053361mWCRJhalawar City, Rajasthan
23RMARamganj Mandi Junction (3)X  11:54-11:55-1m--1195.339358mWCRRamganj Mandi, Rajasthan
24MKXMorak (2)X  12:09-12:10-1m--1204.439337mWCRMorak, Rajasthan
25KIWKanwalpura  12:19-12:20-1m--1210.259324mWCRNH 12, Rajasthan
26DARADaraX  12:29-12:30-1m--1219.155354mWCRDara, Rajasthan
27RDTRavtha Road  12:44-12:45-1m--1231.951366mWCRNational Highway 12, Rajasthan
28ALNIAlniyaX  12:59-13:00-1m--1243.846334mWCRNH 12, Rajasthan
29DDVDadhdeviX  13:09-13:10-1m--1250.629308mWCRNH 12, Rajasthan
30DKNTDakaniya Talav (2)X  13:24-13:25-1m11257.311278mWCRKota, Rajasthan
31KOTAKota Junction (5)  14:15-14:20-5m11266.636256mWCRKota, Rajasthan
32GQLGurla  14:29-14:30-1m--1272.053251mWCRSH 33, Rajasthan
33KPTNKeshorai PatanX  14:39-14:40-1m--1280.073243mWCRSH 33, Rajasthan
34AREArnetha  14:49-14:50-1m--1290.961239mWCRShreepura, Rajasthan
35KPZKaprenX  14:59-15:00-1m--1300.167234mWCRKota - Lalsot Mega Highway, Rajasthan
36GKBGhataka VaranaXO  15:09-15:10-1m--1310.162232mWCRSH 33, Rajasthan
37LBNLaban (2)O  15:19-15:20-1m--1319.516225mWCRBundi, Rajasthan
38LKELakheri (3)  15:49-15:50-1m--1327.060228mWCRBundi, Rajasthan
39IDGIndargarh Sumerganj Mandi (2)X  16:01-16:02-1m--1338.078247mWCRIndargarh, Rajasthan
40AMLIAmli  16:12-16:13-1m--1351.165233mWCRSawai Madhopur, Rajasthan
41RWJRawania DungarX  16:20-16:21-1m--1358.756266mWCRSawai Madhopur, Rajasthan
42KTAKushtalaXO  16:30-16:31-1m--1367.215283mWCRNH 116, Rajasthan
43SWMSawai Madhopur Junction (4)X  16:59-17:00-1m--1374.368266mWCRSawai Madhopur, Rajasthan
44RNTRanthambhore  17:09-17:10-1m--1384.561248mWCRMDR 111, Rajasthan
45MXLMokholi  17:19-17:20-1m--1393.772242mWCRMDR 111, Rajasthan
46MLZMalarna  17:29-17:30-1m--1404.548236mWCRSawai Madhopur, Rajasthan
47NMDNomodaX  17:39-17:40-1m--1411.641238mWCRMDR 111, Rajasthan
48NNWNarayanpur Tatwara (2)X  17:54-17:55-1m--1421.371256mWCRSawai Madhopur, Rajasthan
49LRULalpur Umri  18:04-18:05-1m--1431.915276mWCRSH 1, Rajasthan
50GGCGangapur City (3)X  18:30-18:35-5m--1438.255270mWCRGangapur, Rajasthan
51COOChhoti Odai  18:49-18:50-1m--1450.953257mWCRSH 25, Rajasthan
52PDZPiliodaX  18:59-19:00-1m--1458.854247mWCRSH 1, Rajasthan
53SMBJShri Mahabirji (3)  19:15-19:16-1m--1472.334240mWCRKarauli, Rajasthan
54HANHindaun City (2)X  19:34-19:35-1m--1482.557230mWCRKarauli, Rajasthan
55FSPFateh SinghpuraX  19:49-19:50-1m--1495.771223mWCRState Highway 1, Rajasthan
56DY•Dumariya (2)•X  19:59-20:00-1m--1506.314211mWCRState Highway 1, Rajasthan
57BXNBayana Junction (3)  20:40-20:50-10m--1515.338198mWCRBayana, Rajasthan
58KEVKela Devi  21:09-21:10-1m--1527.377193mWCRBharatpur, Rajasthan
59PNGRPingora  21:17-21:18-1m--1536.362191mWCRSH 1, Rajasthan
60SWARSewarX  21:29-21:30-1m--1547.620183mWCRBharatpur, Rajasthan
61BTEBharatpur Junction (5)  22:00-22:10-10m41557.355174mWCRBharatpur, Rajasthan
62DUMDhaurmui Jaghina  22:19-22:20-1m--1565.640180mWCRState Highway 33, Rajasthan
63JJAJajan Patti  22:32-22:33-1m--1573.672181mWCRState Highway 33, Rajasthan
64MSRPMurhesi Rampur (2)  22:40-22:41-1m--1582.012182mWCRSH 33, Uttar Pradesh
65MTJMathura Junction (10)  23:25--51590.9-179mNCRMathura, Uttar Pradesh
Scroll to Top
Scroll to Bottom